createdAt,value
2022-08-09T00:02:57.469Z,16.52
2022-08-09T00:08:01.326Z,16.62
2022-08-09T00:13:03.966Z,16.90
2022-08-09T00:18:11.531Z,16.71
2022-08-09T00:23:58.135Z,16.65
2022-08-09T00:28:37.220Z,16.56
2022-08-09T00:33:49.065Z,16.41
2022-08-09T00:38:53.927Z,16.93
2022-08-09T00:44:14.161Z,16.88
2022-08-09T00:49:18.507Z,16.68
2022-08-09T00:54:31.376Z,16.70
2022-08-09T00:59:46.621Z,16.64
2022-08-09T01:05:13.878Z,16.80
2022-08-09T01:10:29.442Z,16.52
2022-08-09T01:15:40.966Z,16.54
2022-08-09T01:21:15.841Z,16.69
2022-08-09T01:26:54.074Z,16.69
2022-08-09T01:32:43.906Z,16.40
2022-08-09T01:37:42.932Z,15.98
2022-08-09T01:42:46.509Z,16.18
2022-08-09T01:47:49.788Z,16.08
2022-08-09T01:52:54.261Z,15.94
2022-08-09T01:57:57.362Z,15.98
2022-08-09T02:02:59.967Z,16.13
2022-08-09T02:08:38.899Z,16.33
2022-08-09T02:13:37.295Z,16.22
2022-08-09T02:18:47.848Z,16.01
2022-08-09T02:23:54.786Z,16.05
2022-08-09T02:29:03.887Z,16.21
2022-08-09T02:34:13.590Z,16.29
2022-08-09T02:39:33.991Z,16.19
2022-08-09T02:44:45.386Z,16.10
2022-08-09T02:49:57.083Z,16.26
2022-08-09T02:55:20.431Z,16.15
2022-08-09T03:00:25.850Z,15.84
2022-08-09T03:05:29.435Z,15.95
2022-08-09T03:10:33.750Z,15.71
2022-08-09T03:15:40.617Z,15.94
2022-08-09T03:20:59.358Z,16.02
2022-08-09T03:26:03.642Z,16.05
2022-08-09T03:31:10.502Z,16.16
2022-08-09T03:36:27.636Z,16.15
2022-08-09T03:41:45.730Z,15.92
2022-08-09T03:46:50.987Z,15.96
2022-08-09T03:52:00.428Z,15.86
2022-08-09T03:57:12.402Z,16.04
2022-08-09T04:02:28.019Z,15.84
2022-08-09T04:07:47.426Z,15.86
2022-08-09T04:12:54.596Z,16.10
2022-08-09T04:17:57.824Z,16.11
2022-08-09T04:23:09.943Z,15.96
2022-08-09T04:28:12.565Z,16.01
2022-08-09T04:33:14.781Z,16.23
2022-08-09T04:38:17.085Z,16.07
2022-08-09T04:43:20.673Z,16.22
2022-08-09T04:48:33.429Z,16.32
2022-08-09T04:53:35.923Z,16.25
2022-08-09T04:58:38.397Z,16.14
2022-08-09T05:03:43.444Z,16.17
2022-08-09T05:08:48.078Z,16.15
2022-08-09T05:13:50.643Z,16.28
2022-08-09T05:18:59.632Z,16.33
2022-08-09T05:24:05.090Z,16.15
2022-08-09T05:29:07.575Z,16.20
2022-08-09T05:34:21.065Z,16.53
2022-08-09T05:39:36.454Z,16.68
2022-08-09T05:44:45.329Z,16.42
2022-08-09T05:50:25.593Z,16.43
2022-08-09T05:55:20.512Z,16.64
2022-08-09T06:00:24.791Z,16.55
2022-08-09T06:05:30.654Z,16.56
2022-08-09T06:10:56.932Z,16.83
2022-08-09T06:15:59.951Z,16.98
2022-08-09T06:21:04.492Z,17.06
2022-08-09T06:26:08.005Z,17.07
2022-08-09T06:31:11.894Z,16.84
2022-08-09T06:36:14.117Z,17.16
2022-08-09T06:41:18.905Z,17.09
2022-08-09T06:46:39.221Z,17.12
2022-08-09T06:51:43.102Z,17.20
2022-08-09T06:56:48.235Z,17.25
2022-08-09T07:01:53.710Z,17.33
2022-08-09T07:07:00.474Z,17.07
2022-08-09T07:12:03.384Z,17.26
2022-08-09T07:17:08.629Z,17.67
2022-08-09T07:22:11.652Z,17.67
2022-08-09T07:27:26.264Z,17.62
2022-08-09T07:32:35.377Z,17.85
2022-08-09T07:37:45.664Z,17.17
2022-08-09T07:42:57.156Z,17.85
2022-08-09T07:48:01.706Z,17.96
2022-08-09T07:53:07.743Z,17.69
2022-08-09T07:58:14.400Z,18.17
2022-08-09T08:03:17.329Z,18.17
2022-08-09T08:09:00.269Z,18.41
2022-08-09T08:13:56.323Z,18.14
2022-08-09T08:19:02.642Z,18.54
2022-08-09T08:24:12.092Z,17.89
2022-08-09T08:29:20.186Z,18.10
2022-08-09T08:34:29.834Z,18.37
2022-08-09T08:39:43.767Z,18.30
2022-08-09T08:44:47.278Z,18.29
2022-08-09T08:49:49.612Z,18.58
2022-08-09T08:54:56.682Z,18.75
2022-08-09T08:59:59.211Z,18.56
2022-08-09T09:05:06.205Z,18.43
2022-08-09T09:10:12.684Z,18.69
2022-08-09T09:15:27.945Z,18.74
2022-08-09T09:20:36.536Z,18.77
2022-08-09T09:26:03.126Z,18.96
2022-08-09T09:31:17.660Z,19.16
2022-08-09T09:36:51.307Z,18.95
2022-08-09T09:41:57.243Z,19.09
2022-08-09T09:47:16.684Z,19.47
2022-08-09T09:52:36.814Z,19.31
2022-08-09T09:58:03.177Z,19.70
2022-08-09T10:03:11.420Z,19.91
2022-08-09T10:08:27.892Z,19.92
2022-08-09T10:13:43.229Z,20.12
2022-08-09T10:18:56.115Z,20.24
2022-08-09T10:24:04.797Z,20.31
2022-08-09T10:29:32.724Z,20.57
2022-08-09T10:34:33.663Z,20.20
2022-08-09T10:39:49.236Z,20.85
2022-08-09T10:45:16.902Z,20.94
2022-08-09T10:50:27.062Z,20.61
2022-08-09T10:55:58.602Z,21.05
2022-08-09T11:03:06.967Z,20.66
2022-08-09T11:06:26.366Z,20.79
2022-08-09T11:11:54.441Z,20.93
2022-08-09T11:16:59.841Z,20.87
2022-08-09T11:22:10.226Z,20.93
2022-08-09T11:28:02.735Z,21.30
2022-08-09T11:33:07.033Z,21.36
2022-08-09T11:38:28.549Z,21.43
2022-08-09T11:43:35.007Z,21.38
2022-08-09T11:48:51.496Z,21.26
2022-08-09T11:54:14.443Z,21.61
2022-08-09T11:59:30.529Z,21.51
2022-08-09T12:04:37.373Z,21.61
2022-08-09T12:09:43.982Z,21.59
2022-08-09T12:15:08.065Z,21.53
2022-08-09T12:20:21.331Z,21.50
2022-08-09T12:25:36.088Z,21.41
2022-08-09T12:30:40.714Z,21.43
2022-08-09T12:35:43.941Z,21.15
2022-08-09T12:40:51.749Z,21.40
2022-08-09T12:45:59.700Z,21.23
2022-08-09T12:51:04.353Z,21.74
2022-08-09T12:56:42.973Z,21.18
2022-08-09T13:01:49.109Z,21.75
2022-08-09T13:06:54.150Z,21.53
2022-08-09T13:12:02.515Z,21.54
2022-08-09T13:17:08.437Z,21.70
2022-08-09T13:22:36.782Z,21.71
2022-08-09T13:27:55.060Z,20.99
2022-08-09T13:32:58.620Z,21.73
2022-08-09T13:38:02.351Z,21.66
2022-08-09T13:43:09.490Z,21.61
2022-08-09T13:48:14.593Z,21.03
2022-08-09T13:53:18.028Z,21.72
2022-08-09T13:58:20.847Z,21.69
2022-08-09T14:04:02.525Z,21.71
2022-08-09T14:08:46.420Z,21.61
2022-08-09T14:14:22.255Z,21.47
2022-08-09T14:19:12.137Z,21.64
2022-08-09T14:24:18.706Z,21.51
2022-08-09T14:29:25.377Z,21.34
2022-08-09T14:34:47.028Z,21.48
2022-08-09T14:39:59.092Z,21.07
2022-08-09T14:46:51.421Z,21.46
2022-08-09T14:50:25.993Z,21.42
2022-08-09T14:55:32.660Z,20.57
2022-08-09T15:00:39.814Z,21.18
2022-08-09T15:05:52.493Z,20.76
2022-08-09T15:11:01.162Z,21.07
2022-08-09T15:16:04.750Z,20.70
2022-08-09T15:21:55.588Z,20.65
2022-08-09T15:26:32.607Z,21.13
2022-08-09T15:31:41.817Z,21.05
2022-08-09T15:36:48.370Z,20.52
2022-08-09T15:41:50.902Z,20.65
2022-08-09T15:46:53.135Z,20.84
2022-08-09T15:52:03.477Z,20.59
2022-08-09T15:57:09.487Z,20.53
2022-08-09T16:02:13.190Z,20.60
2022-08-09T16:07:16.074Z,20.88
2022-08-09T16:12:19.453Z,20.74
2022-08-09T16:17:22.283Z,20.87
2022-08-09T16:22:25.073Z,20.66
2022-08-09T16:27:32.075Z,20.03
2022-08-09T16:32:56.753Z,20.99
2022-08-09T16:38:00.528Z,20.60
2022-08-09T16:43:04.609Z,20.48
2022-08-09T16:48:39.648Z,20.06
2022-08-09T16:53:33.962Z,20.18
2022-08-09T16:58:49.841Z,20.31
2022-08-09T17:03:53.790Z,19.50
2022-08-09T17:09:00.271Z,19.68
2022-08-09T17:14:25.586Z,19.66
2022-08-09T17:19:47.409Z,19.60
2022-08-09T17:24:54.956Z,19.67
2022-08-09T17:29:57.931Z,19.43
2022-08-09T17:35:11.202Z,19.71
2022-08-09T17:40:16.918Z,19.15
2022-08-09T17:45:27.411Z,19.43
2022-08-09T17:50:40.849Z,18.94
2022-08-09T17:56:01.999Z,19.31
2022-08-09T18:01:08.817Z,18.74
2022-08-09T18:06:14.902Z,16.44
2022-08-09T18:11:46.876Z,18.80
2022-08-09T18:17:00.796Z,18.67
2022-08-09T18:22:03.468Z,18.58
2022-08-09T18:27:06.890Z,18.70
2022-08-09T18:32:10.872Z,18.62
2022-08-09T18:37:48.173Z,18.24
2022-08-09T18:42:43.802Z,18.33
2022-08-09T18:47:49.021Z,17.58
2022-08-09T18:52:53.418Z,17.58
2022-08-09T18:57:58.275Z,17.12
2022-08-09T19:03:00.730Z,18.04
2022-08-09T19:08:09.967Z,17.69
2022-08-09T19:13:22.351Z,17.56
2022-08-09T19:18:33.199Z,18.01
2022-08-09T19:24:36.588Z,17.92
2022-08-09T19:29:15.650Z,17.54
2022-08-09T19:34:22.828Z,17.46
2022-08-09T19:39:43.930Z,17.31
2022-08-09T19:44:51.392Z,17.63
2022-08-09T19:50:09.611Z,17.19
2022-08-09T19:55:30.680Z,17.36
2022-08-09T20:00:45.444Z,16.88
2022-08-09T20:05:50.836Z,16.85
2022-08-09T20:10:56.359Z,16.66
2022-08-09T20:16:35.606Z,17.27
2022-08-09T20:21:24.119Z,16.90
2022-08-09T20:26:43.210Z,16.90
2022-08-09T20:32:16.835Z,16.80
2022-08-09T20:37:07.686Z,16.83
2022-08-09T20:42:12.624Z,16.71
2022-08-09T20:47:36.328Z,16.47
2022-08-09T20:52:37.963Z,16.59
2022-08-09T20:58:05.250Z,16.48
2022-08-09T21:03:04.947Z,16.47
2022-08-09T21:08:07.375Z,16.51
2022-08-09T21:13:12.135Z,16.54
2022-08-09T21:18:25.643Z,16.03
2022-08-09T21:23:47.805Z,16.22
2022-08-09T21:28:56.255Z,16.08
2022-08-09T21:33:59.467Z,16.38
2022-08-09T21:39:01.902Z,15.80
2022-08-09T21:44:07.083Z,15.95
2022-08-09T21:49:11.107Z,15.89
2022-08-09T21:54:16.628Z,15.83
2022-08-09T21:59:19.323Z,15.63
2022-08-09T22:04:55.733Z,15.92
2022-08-09T22:09:48.059Z,15.74
2022-08-09T22:14:51.650Z,15.62
2022-08-09T22:19:59.163Z,15.71
2022-08-09T22:26:05.500Z,15.89
2022-08-09T22:30:26.373Z,15.85
2022-08-09T22:36:01.109Z,15.62
2022-08-09T22:40:58.460Z,15.66
2022-08-09T22:48:10.151Z,15.59
2022-08-09T22:51:24.079Z,15.66
2022-08-09T22:56:32.804Z,15.40
2022-08-09T23:01:36.223Z,15.32
2022-08-09T23:06:57.475Z,15.37
2022-08-09T23:12:00.173Z,15.48
2022-08-09T23:17:02.426Z,15.22
2022-08-09T23:22:04.721Z,14.97
2022-08-09T23:27:06.912Z,15.40
2022-08-09T23:32:09.167Z,15.08
2022-08-09T23:37:11.392Z,15.17
2022-08-09T23:42:13.671Z,14.98
2022-08-09T23:47:15.828Z,15.12
2022-08-09T23:52:17.990Z,15.12
2022-08-09T23:57:25.573Z,15.18
